Time;durP1;ratioP1;P1;durP2;ratioP2;P2;SDS_P1;SDS_P2;PMS_P1;PMS_P2;Temp;Humidity;BMP_temperature;BMP_pressure;BME280_temperature;BME280_humidity;BME280_pressure;Samples;Min_cycle;Max_cycle;Signal;HPM_P1;HPM_P2
2022/08/15 07:39:41;;;;;;;;;;;;;;;23.00;69.71;96195.47;4242628;27;10348;-62
2022/08/15 07:41:51;;;;;;;;;;;;;;;23.33;69.44;96198.31;4229297;27;5666;-62
2022/08/15 07:44:00;;;;;;;;;;;;;;;23.57;68.76;96185.59;4228607;28;6369;-62
2022/08/15 07:46:36;;;;;;;;;;;;;;;23.80;68.23;96186.66;4229959;28;5668;-62
2022/08/15 07:48:42;;;;;;;;;;;;;;;23.94;67.54;96181.34;4230163;28;5117;-62
2022/08/15 07:51:09;;;;;;;;;;;;;;;24.09;67.16;96178.38;4230839;28;5663;-62
2022/08/15 07:53:21;;;;;;;;;;;;;;;24.17;67.40;96169.63;4230563;28;5734;-61
2022/08/15 07:55:26;;;;;;;;;;;;;;;24.27;67.08;96169.47;4230029;28;5875;-61
2022/08/15 07:58:02;;;;;;;;;;;;;;;24.41;66.53;96174.13;4229454;28;5691;-61
2022/08/15 08:00:15;;;;;;;;;;;;;;;24.46;66.32;96176.72;4230780;28;5683;-61
2022/08/15 08:02:42;;;;;;;;;;;;;;;24.48;66.17;96177.25;4231217;28;5782;-61
2022/08/15 08:04:45;;;;;;;;;;;;;;;24.52;65.95;96180.97;4228471;28;5804;-62
2022/08/15 08:06:55;;;;;;;;;;;;;;;24.59;65.76;96182.19;4230768;28;5918;-62
2022/08/15 08:09:08;;;;;;;;;;;;;;;24.66;65.32;96181.78;4229546;27;5702;-62
2022/08/15 08:11:20;;;;;;;;;;;;;;;24.72;65.33;96191.41;4231248;28;5747;-62
2022/08/15 08:13:40;;;;;;;;;;;;;;;24.75;64.73;96190.81;4230213;28;5791;-62
2022/08/15 08:15:52;;;;;;;;;;;;;;;24.75;64.68;96182.72;4214224;28;5810;-62
2022/08/15 08:18:03;;;;;;;;;;;;;;;24.79;64.82;96191.00;4214226;28;6393;-62
2022/08/15 08:20:16;;;;;;;;;;;;;;;24.81;64.66;96188.84;4219895;27;5872;-62
2022/08/15 08:22:28;;;;;;;;;;;;;;;24.83;64.27;96190.13;4225818;28;5714;-63
2022/08/15 08:24:49;;;;;;;;;;;;;;;24.83;63.86;96186.63;4215006;28;5069;-63
2022/08/15 08:27:01;;;;;;;;;;;;;;;24.84;64.04;96183.63;4229951;28;6427;-63
2022/08/15 08:29:12;;;;;;;;;;;;;;;24.85;63.80;96170.91;4230419;28;5758;-63
2022/08/15 08:31:22;;;;;;;;;;;;;;;24.83;63.67;96171.22;4230857;28;5682;-63
2022/08/15 08:33:40;;;;;;;;;;;;;;;24.81;63.37;96176.13;4230944;28;5763;-63
2022/08/15 08:35:53;;;;;;;;;;;;;;;24.79;63.38;96175.59;4229993;28;5841;-62
2022/08/15 08:38:09;;;;;;;;;;;;;;;24.79;63.28;96164.78;4226286;28;5596;-62
2022/08/15 08:43:26;;;;;;;;;;;;;;;24.72;62.62;96171.69;4231655;27;5924;-64
2022/08/15 08:45:39;;;;;;;;;;;;;;;24.70;62.58;96166.59;4235082;28;5677;-64
2022/08/15 08:48:02;;;;;;;;;;;;;;;24.69;62.37;96170.41;4236088;28;5720;-64
2022/08/15 08:50:21;;;;;;;;;;;;;;;24.66;62.22;96168.28;4235192;28;5809;-63
2022/08/15 08:52:45;;;;;;;;;;;;;;;24.65;62.58;96174.78;4224227;27;5653;-63
2022/08/15 08:55:03;;;;;;;;;;;;;;;24.67;62.54;96177.97;4234983;28;5604;-63
2022/08/15 08:57:10;;;;;;;;;;;;;;;24.67;62.12;96177.97;4236220;28;5689;-63
2022/08/15 08:59:23;;;;;;;;;;;;;;;24.68;62.16;96171.47;4235717;28;5641;-63
2022/08/15 09:01:32;;;;;;;;;;;;;;;24.70;62.20;96165.81;4236099;28;5644;-63
2022/08/15 09:03:41;;;;;;;;;;;;;;;24.72;61.88;96164.41;4235500;28;5652;-64
2022/08/15 09:05:51;;;;;;;;;;;;;;;24.73;61.96;96171.41;4235880;28;5662;-63
2022/08/15 09:07:59;;;;;;;;;;;;;;;24.72;61.59;96169.81;4235048;28;6515;-63
2022/08/15 09:10:06;;;;;;;;;;;;;;;24.71;61.73;96173.59;4236220;28;6290;-63
2022/08/15 09:14:38;;;;;;;;;;;;;;;24.75;61.46;96169.19;4219327;28;5754;-63
2022/08/15 09:17:10;;;;;;;;;;;;;;;24.78;61.10;96174.00;4218594;28;5659;-63
2022/08/15 09:19:45;;;;;;;;;;;;;;;24.82;61.41;96177.72;4234777;28;5852;-63
2022/08/15 09:21:56;;;;;;;;;;;;;;;24.90;61.05;96182.41;4233460;28;5687;-63
2022/08/15 09:24:01;;;;;;;;;;;;;;;24.94;60.82;96178.03;4234210;28;5660;-64
2022/08/15 09:26:13;;;;;;;;;;;;;;;25.01;60.49;96177.66;4235735;28;7807;-63
2022/08/15 09:28:30;;;;;;;;;;;;;;;25.06;60.74;96176.75;4235118;28;6335;-72
2022/08/15 09:30:37;;;;;;;;;;;;;;;25.10;60.41;96181.25;4227903;28;5661;-64
2022/08/15 09:33:09;;;;;;;;;;;;;;;25.08;60.31;96178.06;4233585;28;5774;-67
2022/08/15 09:35:31;;;;;;;;;;;;;;;25.05;60.66;96177.88;4233570;28;5825;-77
2022/08/15 09:37:59;;;;;;;;;;;;;;;25.04;60.32;96176.28;4220048;28;5665;-75
2022/08/15 09:40:32;;;;;;;;;;;;;;;25.02;60.20;96178.44;4228418;28;6335;-66
2022/08/15 09:43:19;;;;;;;;;;;;;;;25.03;60.28;96180.06;4217895;28;5633;-66
2022/08/15 09:45:50;;;;;;;;;;;;;;;25.03;60.23;96177.34;4229986;28;7711;-66
2022/08/15 09:48:18;;;;;;;;;;;;;;;25.07;59.96;96176.47;4232108;28;5784;-66
2022/08/15 09:50:39;;;;;;;;;;;;;;;25.14;59.63;96176.88;4230942;28;5685;-66
2022/08/15 09:52:53;;;;;;;;;;;;;;;25.21;59.85;96173.75;4233481;28;5791;-66
2022/08/15 09:55:05;;;;;;;;;;;;;;;25.24;59.83;96159.63;4227316;28;5763;-66
2022/08/15 09:57:36;;;;;;;;;;;;;;;25.29;59.73;96164.94;4234357;27;5747;-65
2022/08/15 09:59:43;;;;;;;;;;;;;;;25.33;59.26;96163.22;4227436;28;5649;-65
2022/08/15 10:01:52;;;;;;;;;;;;;;;25.34;59.45;96162.13;4233571;28;5653;-66
2022/08/15 10:04:02;;;;;;;;;;;;;;;25.36;59.09;96161.81;4226524;28;5665;-66
2022/08/15 10:06:08;;;;;;;;;;;;;;;25.38;59.00;96159.63;4232196;28;5712;-66
2022/08/15 10:09:20;;;;;;;;;;;;;;;25.38;58.65;96163.13;4234515;28;5765;-66
2022/08/15 10:11:32;;;;;;;;;;;;;;;25.36;58.67;96170.72;4232569;28;5657;-66
2022/08/15 10:13:48;;;;;;;;;;;;;;;25.32;58.40;96161.63;4216635;28;5098;-67
2022/08/15 10:15:53;;;;;;;;;;;;;;;25.31;58.60;96161.94;4220612;28;5653;-66
2022/08/15 10:17:59;;;;;;;;;;;;;;;25.31;58.64;96154.59;4233599;28;5734;-66
2022/08/15 10:20:40;;;;;;;;;;;;;;;25.28;58.34;96157.94;4231336;28;5739;-66
2022/08/15 10:22:51;;;;;;;;;;;;;;;25.29;58.26;96156.03;4233237;28;5661;-66
2022/08/15 10:25:20;;;;;;;;;;;;;;;25.32;58.20;96155.41;4232174;28;5652;-66
2022/08/15 10:27:27;;;;;;;;;;;;;;;25.36;58.11;96157.19;4230739;28;5685;-66
2022/08/15 10:29:30;;;;;;;;;;;;;;;25.37;58.04;96155.28;4231337;28;5613;-72
2022/08/15 10:31:44;;;;;;;;;;;;;;;25.29;57.85;96154.13;4226767;28;5827;-69
2022/08/15 10:34:02;;;;;;;;;;;;;;;25.29;57.99;96147.91;4226616;28;5642;-71
2022/08/15 10:36:19;;;;;;;;;;;;;;;25.31;57.90;96143.00;4232709;28;5641;-73
2022/08/15 10:38:36;;;;;;;;;;;;;;;25.32;57.99;96152.69;4231122;28;5744;-69
2022/08/15 10:40:57;;;;;;;;;;;;;;;25.33;57.57;96149.69;4234001;28;5088;-75
2022/08/15 10:43:30;;;;;;;;;;;;;;;25.26;57.97;96141.19;4232635;28;5661;-70
2022/08/15 10:45:59;;;;;;;;;;;;;;;25.19;57.46;96140.78;4232786;28;5657;-71
2022/08/15 10:48:12;;;;;;;;;;;;;;;25.19;57.88;96133.47;4220362;27;5779;-71
2022/08/15 10:50:47;;;;;;;;;;;;;;;25.26;57.67;96133.09;4217354;28;5722;-75
2022/08/15 10:53:04;;;;;;;;;;;;;;;25.27;57.55;96126.56;4228567;28;5673;-74
2022/08/15 10:55:28;;;;;;;;;;;;;;;25.29;57.36;96128.97;4232493;27;5657;-64
2022/08/15 10:58:11;;;;;;;;;;;;;;;25.35;57.61;96127.75;4229512;28;6330;-71
2022/08/15 11:00:37;;;;;;;;;;;;;;;25.37;57.07;96126.34;4226321;28;5706;-71
2022/08/15 11:02:55;;;;;;;;;;;;;;;25.40;57.35;96127.66;4216936;28;5762;-70
2022/08/15 11:05:15;;;;;;;;;;;;;;;25.40;57.37;96123.03;4222546;28;5690;-71
2022/08/15 11:07:34;;;;;;;;;;;;;;;25.41;57.09;96127.34;4217316;28;5745;-72
2022/08/15 11:09:38;;;;;;;;;;;;;;;25.47;57.17;96126.09;4226344;28;5661;-70
2022/08/15 11:11:53;;;;;;;;;;;;;;;25.50;57.24;96130.94;4234084;27;5761;-75
2022/08/15 11:14:11;;;;;;;;;;;;;;;25.51;56.72;96126.31;4222191;28;5659;-78
2022/08/15 11:16:31;;;;;;;;;;;;;;;25.49;56.89;96126.63;4232444;28;5749;-66
2022/08/15 11:18:45;;;;;;;;;;;;;;;25.52;56.83;96123.31;4224118;28;5665;-64
2022/08/15 11:21:17;;;;;;;;;;;;;;;25.56;57.01;96123.50;4223399;28;5684;-65
2022/08/15 11:23:32;;;;;;;;;;;;;;;25.59;57.04;96122.06;4233774;28;5640;-68
2022/08/15 11:25:40;;;;;;;;;;;;;;;25.62;56.74;96122.28;4232828;28;5688;-76
2022/08/15 11:27:46;;;;;;;;;;;;;;;25.68;56.72;96123.75;4233853;28;5818;-69
2022/08/15 11:30:03;;;;;;;;;;;;;;;25.71;56.42;96120.47;4231946;28;5103;-68
2022/08/15 11:32:26;;;;;;;;;;;;;;;25.75;56.82;96131.50;4223192;28;5740;-83
2022/08/15 11:34:35;;;;;;;;;;;;;;;25.78;56.41;96130.88;4217972;28;5695;-67
2022/08/15 11:36:46;;;;;;;;;;;;;;;25.81;56.38;96127.53;4226045;28;5821;-64
2022/08/15 11:38:57;;;;;;;;;;;;;;;25.80;56.15;96129.44;4228144;28;6169;-61
2022/08/15 11:41:24;;;;;;;;;;;;;;;25.83;56.38;96131.56;4232894;28;5657;-61
2022/08/15 11:43:30;;;;;;;;;;;;;;;25.86;56.21;96126.66;4231768;28;5646;-58
2022/08/15 11:45:36;;;;;;;;;;;;;;;25.87;55.90;96136.38;4224274;28;5728;-65
2022/08/15 11:47:55;;;;;;;;;;;;;;;25.89;56.10;96131.44;4233153;28;5680;-63
2022/08/15 11:50:03;;;;;;;;;;;;;;;25.89;56.03;96140.38;4223539;28;5588;-66
2022/08/15 11:52:10;;;;;;;;;;;;;;;25.88;55.64;96144.19;4224798;28;5751;-65
2022/08/15 11:54:35;;;;;;;;;;;;;;;25.89;55.50;96148.47;4216644;28;5733;-63
2022/08/15 11:56:50;;;;;;;;;;;;;;;25.86;55.66;96138.28;4218356;28;5666;-61
2022/08/15 11:58:57;;;;;;;;;;;;;;;25.87;55.30;96145.28;4233181;28;5619;-61
2022/08/15 12:01:23;;;;;;;;;;;;;;;25.84;55.32;96145.91;4231856;28;6390;-61
2022/08/15 12:03:31;;;;;;;;;;;;;;;25.81;55.14;96150.00;4228267;27;5670;-60
2022/08/15 12:05:58;;;;;;;;;;;;;;;25.81;54.86;96157.31;4229632;28;5728;-61
2022/08/15 12:08:24;;;;;;;;;;;;;;;25.82;54.84;96150.81;4232142;28;5649;-60
2022/08/15 12:10:35;;;;;;;;;;;;;;;25.80;54.83;96155.72;4224092;28;5703;-60
2022/08/15 12:12:57;;;;;;;;;;;;;;;25.80;54.41;96155.72;4230269;28;5675;-60
2022/08/15 12:15:13;;;;;;;;;;;;;;;25.82;54.54;96153.50;4234616;28;5638;-60
2022/08/15 12:17:29;;;;;;;;;;;;;;;25.85;54.21;96152.13;4218503;28;5631;-61
2022/08/15 12:19:55;;;;;;;;;;;;;;;25.86;54.27;96149.09;4227843;28;5687;-61
2022/08/15 12:22:29;;;;;;;;;;;;;;;25.87;53.95;96149.91;4234919;28;6330;-60
2022/08/15 12:24:52;;;;;;;;;;;;;;;25.89;53.78;96153.91;4235072;28;5803;-61
2022/08/15 12:27:01;;;;;;;;;;;;;;;25.91;53.76;96151.69;4233303;27;5835;-60
2022/08/15 12:29:07;;;;;;;;;;;;;;;25.94;53.81;96153.78;4226011;28;5796;-61
2022/08/15 12:31:20;;;;;;;;;;;;;;;25.95;53.50;96147.28;4231569;27;5645;-60
2022/08/15 12:33:25;;;;;;;;;;;;;;;25.98;53.52;96152.06;4232259;28;5736;-61
2022/08/15 12:35:33;;;;;;;;;;;;;;;26.01;53.67;96161.47;4230156;27;6384;-62
2022/08/15 12:37:44;;;;;;;;;;;;;;;26.04;53.17;96164.38;4233191;28;5739;-61
2022/08/15 12:39:49;;;;;;;;;;;;;;;26.06;53.24;96156.75;4228222;28;5677;-61
2022/08/15 12:41:57;;;;;;;;;;;;;;;26.06;53.26;96170.28;4234932;27;5735;-61
2022/08/15 12:44:24;;;;;;;;;;;;;;;26.09;53.10;96164.25;4229684;27;5649;-61
2022/08/15 12:46:31;;;;;;;;;;;;;;;26.10;52.63;96165.84;4232193;28;6350;-61
2022/08/15 12:48:35;;;;;;;;;;;;;;;26.12;52.66;96166.34;4229701;28;5743;-61
2022/08/15 12:50:38;;;;;;;;;;;;;;;26.12;52.71;96152.00;4234441;28;5661;-61
2022/08/15 12:52:47;;;;;;;;;;;;;;;26.12;52.44;96152.81;4229695;28;5894;-61
2022/08/15 12:54:59;;;;;;;;;;;;;;;26.17;52.23;96142.97;4226477;28;5677;-61
2022/08/15 12:57:13;;;;;;;;;;;;;;;26.20;52.41;96151.28;4223867;28;5678;-68
2022/08/15 12:59:24;;;;;;;;;;;;;;;26.23;52.24;96152.56;4231806;28;5748;-76
2022/08/15 13:01:29;;;;;;;;;;;;;;;26.28;51.93;96155.16;4233116;28;5840;-86
2022/08/15 13:03:34;;;;;;;;;;;;;;;26.32;52.13;96156.13;4236682;27;7025;-85
2022/08/15 13:06:03;;;;;;;;;;;;;;;26.36;51.72;96152.50;4233602;28;5981;-69
2022/08/15 13:08:26;;;;;;;;;;;;;;;26.40;51.72;96158.13;4233129;28;5668;-66
2022/08/15 13:10:30;;;;;;;;;;;;;;;26.40;51.53;96153.50;4227306;28;5105;-67
2022/08/15 13:12:56;;;;;;;;;;;;;;;26.41;51.46;96151.59;4221872;28;5700;-66
2022/08/15 13:15:02;;;;;;;;;;;;;;;26.41;51.16;96154.31;4230041;28;5736;-67
2022/08/15 13:17:09;;;;;;;;;;;;;;;26.42;50.96;96152.41;4221500;28;5726;-73
2022/08/15 13:23:34;;;;;;;;;;;;;;;26.43;51.05;96145.88;4233757;28;5653;-73
2022/08/15 13:24:35;;;;;;;;;;;;;;;26.40;50.92;96145.38;4232765;28;5736;-71
2022/08/15 13:26:49;;;;;;;;;;;;;;;26.36;50.70;96147.09;4229532;28;5703;-72
2022/08/15 13:28:57;;;;;;;;;;;;;;;26.32;50.71;96139.88;4232547;28;5660;-72
2022/08/15 13:31:00;;;;;;;;;;;;;;;26.29;50.22;96149.44;4232308;28;5201;-71
2022/08/15 13:33:09;;;;;;;;;;;;;;;26.27;50.28;96148.09;4225575;27;5774;-72
2022/08/15 13:35:17;;;;;;;;;;;;;;;26.26;50.43;96151.94;4229264;28;5842;-72
2022/08/15 13:37:25;;;;;;;;;;;;;;;26.24;50.06;96148.72;4224772;28;5670;-72
2022/08/15 13:39:50;;;;;;;;;;;;;;;26.20;50.13;96143.16;4235977;27;5594;-72
2022/08/15 13:41:58;;;;;;;;;;;;;;;26.19;49.92;96149.69;4229062;28;5832;-72
2022/08/15 13:44:23;;;;;;;;;;;;;;;26.16;49.74;96150.25;4217072;28;5938;-72
2022/08/15 13:46:35;;;;;;;;;;;;;;;26.15;50.02;96145.16;4227647;27;5668;-72
2022/08/15 13:48:45;;;;;;;;;;;;;;;26.12;50.00;96152.00;4230081;28;5816;-72
2022/08/15 13:50:55;;;;;;;;;;;;;;;26.11;49.64;96159.34;4217707;28;5861;-71
2022/08/15 13:52:59;;;;;;;;;;;;;;;26.09;49.72;96161.56;4234842;28;5645;-72
2022/08/15 13:55:03;;;;;;;;;;;;;;;26.08;49.44;96167.28;4233317;28;5964;-73
2022/08/15 13:57:19;;;;;;;;;;;;;;;26.07;49.36;96161.06;4232195;28;5699;-73
2022/08/15 13:59:32;;;;;;;;;;;;;;;26.06;49.33;96156.75;4229223;28;5653;-73
2022/08/15 14:01:37;;;;;;;;;;;;;;;26.06;49.40;96155.97;4216694;28;5805;-71
2022/08/15 14:03:41;;;;;;;;;;;;;;;26.06;49.45;96158.66;4232089;28;5842;-71
2022/08/15 14:05:45;;;;;;;;;;;;;;;26.06;49.28;96158.66;4234813;28;5673;-72
2022/08/15 14:07:48;;;;;;;;;;;;;;;26.01;49.63;96167.69;4232468;28;5740;-72
2022/08/15 14:09:59;;;;;;;;;;;;;;;26.02;49.14;96165.78;4233074;28;5604;-72
2022/08/15 14:12:25;;;;;;;;;;;;;;;26.01;49.08;96164.97;4230622;28;5830;-71
2022/08/15 14:14:32;;;;;;;;;;;;;;;26.02;49.11;96163.88;4231580;28;6440;-71
2022/08/15 14:16:43;;;;;;;;;;;;;;;26.03;49.36;96162.75;4234809;28;5692;-72
2022/08/15 14:19:02;;;;;;;;;;;;;;;26.06;48.79;96153.25;4233467;27;5684;-72
2022/08/15 14:21:07;;;;;;;;;;;;;;;26.06;48.88;96147.84;4217443;28;5721;-72
2022/08/15 14:23:10;;;;;;;;;;;;;;;26.08;48.97;96156.44;4217351;28;5706;-72
2022/08/15 14:25:17;;;;;;;;;;;;;;;26.10;48.68;96156.94;4216912;28;5805;-72
2022/08/15 14:27:43;;;;;;;;;;;;;;;26.10;48.97;96151.50;4223063;28;5604;-72
2022/08/15 14:29:53;;;;;;;;;;;;;;;26.12;48.88;96157.41;4217088;28;5663;-72
2022/08/15 14:31:58;;;;;;;;;;;;;;;26.15;48.90;96153.28;4229627;28;5702;-73
2022/08/15 14:34:01;;;;;;;;;;;;;;;26.14;48.64;96149.78;4221347;28;5670;-73
2022/08/15 14:36:27;;;;;;;;;;;;;;;26.11;48.49;96153.91;4223140;27;5709;-73
2022/08/15 14:38:33;;;;;;;;;;;;;;;26.10;48.65;96149.59;4233053;28;5765;-73
2022/08/15 14:40:39;;;;;;;;;;;;;;;26.11;48.79;96153.91;4224428;28;5674;-73
2022/08/15 14:42:42;;;;;;;;;;;;;;;26.12;48.76;96147.38;4217374;28;5673;-73
2022/08/15 14:44:47;;;;;;;;;;;;;;;26.13;48.60;96148.19;4221132;28;6221;-73
2022/08/15 14:46:53;;;;;;;;;;;;;;;26.12;48.36;96139.25;4221959;28;5100;-73
2022/08/15 14:48:56;;;;;;;;;;;;;;;26.15;48.63;96143.25;4234024;28;5646;-73
2022/08/15 14:51:00;;;;;;;;;;;;;;;26.18;48.46;96133.72;4222916;28;6423;-73
2022/08/15 14:53:24;;;;;;;;;;;;;;;26.21;48.19;96133.91;4223597;27;5877;-73
2022/08/15 14:55:33;;;;;;;;;;;;;;;26.24;48.40;96132.47;4234146;28;5665;-73
2022/08/15 14:57:36;;;;;;;;;;;;;;;26.24;48.32;96138.69;4233644;28;5637;-73
2022/08/15 15:00:05;;;;;;;;;;;;;;;26.28;48.02;96133.47;4233622;28;5649;-73
2022/08/15 15:02:14;;;;;;;;;;;;;;;26.29;47.94;96129.66;4233984;28;5716;-73
2022/08/15 15:04:28;;;;;;;;;;;;;;;26.30;48.04;96131.25;4232903;28;5122;-73
2022/08/15 15:06:37;;;;;;;;;;;;;;;26.30;48.06;96133.97;4232718;28;5653;-73
2022/08/15 15:08:41;;;;;;;;;;;;;;;26.31;47.79;96135.56;4233938;28;6313;-73
2022/08/15 15:10:46;;;;;;;;;;;;;;;26.29;47.66;96135.06;4232439;28;5653;-73
2022/08/15 15:12:51;;;;;;;;;;;;;;;26.29;47.68;96138.59;4232837;27;5641;-72
2022/08/15 15:14:57;;;;;;;;;;;;;;;26.29;47.59;96132.38;4225623;28;5818;-73
2022/08/15 15:17:00;;;;;;;;;;;;;;;26.28;47.53;96133.47;4232250;28;5748;-73
2022/08/15 15:19:05;;;;;;;;;;;;;;;26.27;47.47;96138.06;4228714;28;6363;-73
2022/08/15 15:21:15;;;;;;;;;;;;;;;26.26;47.70;96141.91;4233230;28;6329;-73
2022/08/15 15:23:18;;;;;;;;;;;;;;;26.26;47.41;96147.31;4229429;28;5688;-73
2022/08/15 15:25:22;;;;;;;;;;;;;;;26.28;47.26;96141.59;4228926;28;5847;-73
2022/08/15 15:27:26;;;;;;;;;;;;;;;26.29;47.53;96138.59;4228087;27;5665;-72
2022/08/15 15:29:36;;;;;;;;;;;;;;;26.31;47.40;96127.44;4228952;28;5896;-71
2022/08/15 15:31:49;;;;;;;;;;;;;;;26.32;47.29;96137.16;4227658;28;5868;-71
2022/08/15 15:33:58;;;;;;;;;;;;;;;26.34;47.46;96135.75;4228231;28;6334;-72
2022/08/15 15:36:11;;;;;;;;;;;;;;;26.36;47.33;96138.13;4225124;28;5792;-71
2022/08/15 15:38:31;;;;;;;;;;;;;;;26.36;47.27;96135.41;4224331;28;5770;-72
2022/08/15 15:40:40;;;;;;;;;;;;;;;26.36;47.35;96133.53;4231259;28;5649;-71
2022/08/15 15:42:44;;;;;;;;;;;;;;;26.36;47.16;96135.41;4229738;28;5845;-72
2022/08/15 15:44:50;;;;;;;;;;;;;;;26.35;47.03;96134.63;4225317;28;5839;-72
2022/08/15 15:46:59;;;;;;;;;;;;;;;26.39;47.03;96134.84;4225184;28;6084;-72
2022/08/15 15:49:03;;;;;;;;;;;;;;;26.43;46.49;96133.13;4217177;28;5681;-72
2022/08/15 15:51:07;;;;;;;;;;;;;;;26.46;46.71;96124.34;4223055;28;5903;-73
2022/08/15 15:53:19;;;;;;;;;;;;;;;26.48;46.57;96124.84;4218273;28;5098;-73
2022/08/15 15:55:22;;;;;;;;;;;;;;;26.48;46.26;96127.53;4222366;28;5097;-72
2022/08/15 15:57:31;;;;;;;;;;;;;;;26.49;46.42;96131.06;4234794;28;6374;-72
2022/08/15 15:59:55;;;;;;;;;;;;;;;26.48;46.01;96134.88;4235480;28;5867;-72
2022/08/15 16:02:22;;;;;;;;;;;;;;;26.46;46.08;96124.34;4220753;28;5685;-73
2022/08/15 16:04:45;;;;;;;;;;;;;;;26.45;46.10;96120.06;4219104;28;5681;-73
2022/08/15 16:06:50;;;;;;;;;;;;;;;26.45;45.98;96119.25;4222180;28;5779;-72
2022/08/15 16:09:06;;;;;;;;;;;;;;;26.43;45.84;96099.78;4219496;28;5933;-73
2022/08/15 16:11:18;;;;;;;;;;;;;;;26.43;46.08;96114.16;4219230;28;5774;-73
2022/08/15 16:13:34;;;;;;;;;;;;;;;26.40;45.84;96109.34;4228783;28;5692;-72
2022/08/15 16:15:43;;;;;;;;;;;;;;;26.40;45.96;96117.47;4227408;28;5861;-72
2022/08/15 16:17:51;;;;;;;;;;;;;;;26.39;45.77;96110.47;4235364;28;5663;-72
2022/08/15 16:20:19;;;;;;;;;;;;;;;26.40;45.71;96112.88;4220118;28;5815;-72
2022/08/15 16:22:49;;;;;;;;;;;;;;;26.41;45.65;96108.25;4223439;28;6294;-72
2022/08/15 16:25:02;;;;;;;;;;;;;;;26.42;45.44;96114.47;4236438;27;5747;-73
2022/08/15 16:27:11;;;;;;;;;;;;;;;26.42;45.75;96109.84;4229040;28;5664;-73
2022/08/15 16:29:20;;;;;;;;;;;;;;;26.43;45.57;96119.56;4231097;28;5766;-73
2022/08/15 16:31:28;;;;;;;;;;;;;;;26.42;45.13;96112.53;4224182;28;5712;-73
2022/08/15 16:33:40;;;;;;;;;;;;;;;26.40;45.19;96112.06;4226588;28;5673;-73
2022/08/15 16:35:48;;;;;;;;;;;;;;;26.41;45.13;96116.38;4230956;28;6450;-73
2022/08/15 16:38:02;;;;;;;;;;;;;;;26.40;45.09;96110.16;4234112;28;5653;-73
2022/08/15 16:40:30;;;;;;;;;;;;;;;26.42;44.99;96111.75;4228177;28;5861;-73
2022/08/15 16:42:57;;;;;;;;;;;;;;;26.42;45.05;96107.13;4219018;28;5650;-73
2022/08/15 16:45:04;;;;;;;;;;;;;;;26.42;44.78;96114.47;4229492;28;5783;-74
2022/08/15 16:47:21;;;;;;;;;;;;;;;26.40;44.55;96110.16;4218973;28;5658;-73
2022/08/15 16:49:45;;;;;;;;;;;;;;;26.39;44.64;96108.56;4219566;28;6051;-73
2022/08/15 16:51:59;;;;;;;;;;;;;;;26.39;44.47;96105.84;4219081;28;5666;-73
2022/08/15 16:54:30;;;;;;;;;;;;;;;26.37;44.58;96101.81;4221411;28;5570;-72
2022/08/15 16:56:53;;;;;;;;;;;;;;;26.37;44.21;96112.66;4221477;28;5837;-73
2022/08/15 16:59:04;;;;;;;;;;;;;;;26.36;44.26;96097.47;4234909;28;5641;-73
2022/08/15 17:01:27;;;;;;;;;;;;;;;26.37;44.38;96109.94;4234450;28;5747;-73
2022/08/15 17:03:58;;;;;;;;;;;;;;;26.36;44.17;96102.91;4219075;28;5678;-73
2022/08/15 17:06:09;;;;;;;;;;;;;;;26.37;44.13;96109.94;4218803;28;5726;-73
2022/08/15 17:08:21;;;;;;;;;;;;;;;26.37;43.93;96112.66;4231953;28;6436;-73
2022/08/15 17:10:41;;;;;;;;;;;;;;;26.36;43.96;96108.31;4234765;28;5656;-73
2022/08/15 17:12:53;;;;;;;;;;;;;;;26.38;44.03;96106.13;4218718;28;5657;-73
2022/08/15 17:15:08;;;;;;;;;;;;;;;26.38;44.10;96111.56;4218533;28;6038;-73
2022/08/15 17:17:18;;;;;;;;;;;;;;;26.38;44.03;96112.34;4218600;28;5681;-73
2022/08/15 17:19:28;;;;;;;;;;;;;;;26.37;43.79;96116.16;4217295;28;5698;-73
2022/08/15 17:21:38;;;;;;;;;;;;;;;26.39;43.76;96118.59;4218746;28;5654;-73
2022/08/15 17:23:56;;;;;;;;;;;;;;;26.37;44.02;96124.31;4218545;28;5826;-73
2022/08/15 17:26:11;;;;;;;;;;;;;;;26.36;44.02;96120.00;4232775;28;5700;-73
2022/08/15 17:28:38;;;;;;;;;;;;;;;26.36;43.54;96120.00;4233301;28;5764;-73
2022/08/15 17:30:50;;;;;;;;;;;;;;;26.37;43.68;96118.09;4229117;27;5097;-73
2022/08/15 17:33:06;;;;;;;;;;;;;;;26.37;43.85;96121.59;4223445;27;5737;-72
2022/08/15 17:35:20;;;;;;;;;;;;;;;26.39;43.77;96115.88;4222666;28;5712;-72
2022/08/15 17:37:24;;;;;;;;;;;;;;;26.39;43.88;96115.88;4219788;28;5846;-72
2022/08/15 17:39:32;;;;;;;;;;;;;;;26.37;43.59;96113.47;4223787;28;6497;-72
2022/08/15 17:41:41;;;;;;;;;;;;;;;26.37;43.64;96118.09;4226376;27;5835;-72
2022/08/15 17:43:48;;;;;;;;;;;;;;;26.36;43.68;96113.75;4221346;27;5785;-72
2022/08/15 17:45:55;;;;;;;;;;;;;;;26.37;43.79;96118.88;4233675;28;5712;-72
2022/08/15 17:48:04;;;;;;;;;;;;;;;26.36;43.59;96117.28;4228804;28;5670;-72
2022/08/15 17:50:33;;;;;;;;;;;;;;;26.37;43.94;96131.63;4217960;28;6497;-72
2022/08/15 17:53:00;;;;;;;;;;;;;;;26.35;43.79;96129.22;4219590;28;5685;-72
2022/08/15 17:55:09;;;;;;;;;;;;;;;26.34;43.69;96143.88;4217868;28;6922;-72
2022/08/15 17:57:20;;;;;;;;;;;;;;;26.33;43.90;96141.47;4223285;27;5788;-73
2022/08/15 17:59:32;;;;;;;;;;;;;;;26.32;44.00;96143.38;4234403;27;5649;-73
2022/08/15 18:01:41;;;;;;;;;;;;;;;26.31;43.86;96143.69;4228220;28;5670;-73
2022/08/15 18:03:46;;;;;;;;;;;;;;;26.30;43.71;96144.81;4229998;27;5865;-73
2022/08/15 18:05:49;;;;;;;;;;;;;;;26.28;44.02;96147.81;4232541;27;5831;-73
2022/08/15 18:08:08;;;;;;;;;;;;;;;26.28;43.93;96144.31;4229326;28;5736;-73
2022/08/15 18:10:19;;;;;;;;;;;;;;;26.27;43.84;96153.53;4233547;28;5794;-73
2022/08/15 18:12:43;;;;;;;;;;;;;;;26.26;43.79;96154.63;4233107;27;6310;-73
2022/08/15 18:14:49;;;;;;;;;;;;;;;26.25;43.94;96155.75;4226560;27;5778;-73
2022/08/15 18:16:56;;;;;;;;;;;;;;;26.22;44.08;96145.53;4234534;28;5656;-72
2022/08/15 18:19:04;;;;;;;;;;;;;;;26.21;43.92;96152.88;4229185;28;5660;-72
2022/08/15 18:21:16;;;;;;;;;;;;;;;26.21;44.05;96158.28;4224388;28;5626;-72
2022/08/15 18:23:24;;;;;;;;;;;;;;;26.19;44.12;96157.00;4232298;27;5659;-72
2022/08/15 18:25:49;;;;;;;;;;;;;;;26.17;43.83;96153.81;4232118;28;5669;-72
2022/08/15 18:27:55;;;;;;;;;;;;;;;26.17;43.99;96161.94;4229919;28;5907;-73
2022/08/15 18:30:01;;;;;;;;;;;;;;;26.13;43.95;96162.53;4218549;28;5777;-72
2022/08/15 18:32:25;;;;;;;;;;;;;;;26.13;44.11;96157.09;4230508;28;5779;-72
2022/08/15 18:34:44;;;;;;;;;;;;;;;26.11;43.88;96162.03;4219708;28;5815;-72
2022/08/15 18:36:58;;;;;;;;;;;;;;;26.10;44.13;96171.28;4231254;28;6347;-72
2022/08/15 18:41:29;;;;;;;;;;;;;;;26.08;44.05;96173.50;4223096;28;5852;-71
2022/08/15 18:43:45;;;;;;;;;;;;;;;26.07;43.61;96171.91;4233317;28;6349;-72
2022/08/15 18:46:07;;;;;;;;;;;;;;;26.05;43.51;96176.81;4230199;28;5665;-71
2022/08/15 18:48:16;;;;;;;;;;;;;;;26.04;43.27;96179.81;4231631;28;5649;-71
2022/08/15 18:50:40;;;;;;;;;;;;;;;26.04;43.22;96177.09;4228707;28;5759;-71
2022/08/15 18:52:50;;;;;;;;;;;;;;;26.04;43.02;96175.19;4230186;28;5761;-71
2022/08/15 18:54:56;;;;;;;;;;;;;;;26.04;43.06;96183.31;4229394;28;5757;-71
2022/08/15 18:57:31;;;;;;;;;;;;;;;26.04;42.97;96180.63;4229120;28;5751;-71
2022/08/15 18:59:52;;;;;;;;;;;;;;;26.05;42.71;96189.56;4216812;28;5651;-71
2022/08/15 19:01:58;;;;;;;;;;;;;;;26.05;42.24;96192.28;4224385;28;5656;-71
2022/08/15 19:04:04;;;;;;;;;;;;;;;26.05;42.47;96200.41;4233061;28;5644;-71
2022/08/15 19:06:30;;;;;;;;;;;;;;;26.05;42.01;96200.41;4233602;27;5677;-71
2022/08/15 19:08:54;;;;;;;;;;;;;;;26.06;42.22;96205.50;4241729;27;5589;-71
2022/08/15 19:10:58;;;;;;;;;;;;;;;26.07;41.80;96203.59;4231788;28;5653;-71
2022/08/15 19:13:11;;;;;;;;;;;;;;;26.07;41.60;96204.41;4231419;28;5656;-71
2022/08/15 19:15:17;;;;;;;;;;;;;;;26.08;41.56;96205.19;4232778;27;5642;-71
2022/08/15 19:17:28;;;;;;;;;;;;;;;26.05;41.79;96201.19;4229747;28;5707;-71
2022/08/15 19:19:38;;;;;;;;;;;;;;;26.04;41.40;96210.41;4228419;28;5604;-72
2022/08/15 19:21:44;;;;;;;;;;;;;;;26.07;41.44;96207.09;4225512;28;5896;-71
2022/08/15 19:23:51;;;;;;;;;;;;;;;26.06;41.03;96215.53;4228575;28;5641;-70
2022/08/15 19:26:13;;;;;;;;;;;;;;;26.07;40.95;96217.13;4226144;28;5637;-70
2022/08/15 19:28:42;;;;;;;;;;;;;;;26.08;40.81;96218.75;4226785;27;5756;-69
2022/08/15 19:30:58;;;;;;;;;;;;;;;26.08;40.98;96216.84;4228769;28;5665;-74
2022/08/15 19:33:20;;;;;;;;;;;;;;;26.07;40.76;96215.22;4239354;27;6277;-72
2022/08/15 19:35:32;;;;;;;;;;;;;;;26.05;41.07;96214.75;4226772;28;5858;-72
2022/08/15 19:37:49;;;;;;;;;;;;;;;26.04;40.89;96215.81;4223454;28;5919;-72